To NAV CANADA Home Page Login to a new session Search on AWWS site Feedback and Comments Disclaimer Vers la page française équivalente Tips FAQ What's new on the site To the Forecasts and Observations / NOTAM section To "File a Flight Plan" website Publications and other links Update of the User's profile FIC Telephone Numbers My Weather Data Folder Route Weather Data Regional Weather Data Local Weather Data To the Forecasts and Observations / NOTAM section
Request Generated 03/05/2015 at 18:40:47 UTC . Weather information available at that time is displayed.

METAR/TAF

LOURDES-DE-BLANC-SABLON/QC    

SPECI CYBX 051837Z 26015G21KT 4SM -SN BKN040 M09/M11 A2936 RMK SC7
SLP945=
METAR CYBX 051800Z 26020KT 15SM OVC050 M08/M12 A2933 RMK SC8 SLP937=
METAR CYBX 051700Z VRB02KT 15SM BKN050 M11/M15 A2933 RMK SC6 SLP935=
METAR CYBX 051600Z 28008KT 15SM FEW025 FEW200 M12/M15 A2931 RMK
SC1CI1 SLP930=

TAF CYBX 051341Z 0514/0602 26008KT P6SM SCT010 BKN030 TEMPO 0514/0516
3SM -SN BKN020
FM051600 27012G22KT P6SM BKN040 TEMPO 0516/0602 SCT040
RMK NXT FCST BY 052000Z=
Your time UTC time
Weather data provided by Environment Canada and NAV CANADA